Flight Track Log - Related Links

Times and Time Zones

All times are in EST time to prevent confusion due to time zone crossing. See the N328AJ flight status page for this flight to view local times or setup timezone preferences in your user account.

Time Position Orientation Groundspeed Altitude Reporting Facility
EST Latitude Longitude Course Direction KTS MPH feet Rate Location/Type
Thu 02:47:24 PM 24.7064 -81.6753 336° Northwest 238 274 4,500  Level Miami Center
Thu 02:48:24 PM 24.7600 -81.6317 36° Northeast 238 274 5,600 1,100 Climbing Miami Center
Thu 02:49:24 PM 24.8158 -81.5858 37° Northeast 244 281 6,700 1,100 Climbing Miami Center
Thu 02:50:24 PM 24.8736 -81.5400 36° Northeast 249 287 7,800 1,150 Climbing Miami Center
Thu 02:51:00 PM 25.0958 -81.7934 336° Northwest  Level Estimated
Thu 02:51:24 PM 24.9292 -81.4961 36° Northeast 249 287 9,000  Level Miami Center
Thu 02:52:24 PM 24.9872 -81.4481 37° Northeast 254 292 9,900 500 Climbing Miami Center
Thu 02:53:24 PM 25.0494 -81.3953 38° Northeast 260 299 10,000 200 Climbing Miami Center
Thu 02:54:24 PM 25.1136 -81.3450 35° Northeast 271 312 10,300 550 Climbing Miami Center
Thu 02:55:24 PM 25.1869 -81.3339 North 261 300 11,100 800 Climbing Miami Center
Thu 02:56:24 PM 25.2636 -81.3528 347° North 253 291 11,900 850 Climbing Miami Center
Thu 02:57:24 PM 25.3403 -81.3739 346° North 264 304 12,800 1,050 Climbing Miami Center
Thu 02:58:24 PM 25.4128 -81.3906 348° North 275 316 14,000 1,100 Climbing Miami Center
Thu 02:59:24 PM 25.4797 -81.3906 360° North 275 316 15,000 1,000 Climbing Miami Center
Thu 03:00:24 PM 25.5611 -81.3936 358° North 270 311 16,000 1,000 Climbing Miami Center
Thu 03:01:24 PM 25.6342 -81.3919 North 270 311 17,000 850 Climbing Miami Center
Thu 03:02:24 PM 25.7011 -81.3897 North 270 311 17,700 600 Climbing Miami Center
Thu 03:03:24 PM 25.7847 -81.3906 359° North 270 311 18,200 550 Climbing Miami Center
Thu 03:04:24 PM 25.8597 -81.3911 360° North 275 316 18,800 650 Climbing Miami Center
Thu 03:05:24 PM 25.9350 -81.3917 360° North 270 311 19,500 700 Climbing Miami Center
Thu 03:06:24 PM 26.0100 -81.3922 360° North 270 311 20,200 700 Climbing Miami Center
Thu 03:07:24 PM 26.0853 -81.3928 360° North 270 311 20,900 700 Climbing Miami Center
Thu 03:08:24 PM 26.1583 -81.3931 360° North 270 311 21,600 700 Climbing Miami Center
Thu 03:09:24 PM 26.2294 -81.3914 North 270 311 22,300 700 Climbing Miami Center
Thu 03:10:24 PM 26.3025 -81.3917 360° North 265 305 23,000 700 Climbing Miami Center
Thu 03:11:24 PM 26.3756 -81.3922 360° North 259 298 23,700 700 Climbing Miami Center
Thu 03:12:24 PM 26.4464 -81.3925 360° North 259 298 24,400 750 Climbing Miami Center
Thu 03:13:24 PM 26.5175 -81.3906 North 254 292 25,200 700 Climbing Miami Center
Thu 03:14:24 PM 26.5906 -81.3911 360° North 254 292 25,800 550 Climbing Miami Center
Thu 03:15:24 PM 26.6617 -81.3917 360° North 254 292 26,300 500 Climbing Miami Center
Thu 03:16:24 PM 26.7283 -81.3919 360° North 254 292 26,800 500 Climbing Miami Center
Thu 03:17:24 PM 26.7994 -81.3922 360° North 254 292 27,300 500 Climbing Miami Center
Thu 03:18:24 PM 26.8697 -81.4158 343° North 249 287 27,800 350 Climbing Miami Center
Thu 03:19:24 PM 26.9311 -81.4486 335° Northwest 243 280 28,000 100 Climbing Miami Center
Thu 03:20:24 PM 26.9969 -81.4839 334° Northwest 249 287 28,000  Level Miami Center
Thu 03:21:24 PM 27.0586 -81.5142 336° Northwest 259 298 28,000  Level Miami Center
Thu 03:22:24 PM 27.1261 -81.5519 334° Northwest 259 298 28,000  Level Miami Center
Thu 03:23:24 PM 27.2000 -81.5922 334° Northwest 264 304 28,000  Level Miami Center
Thu 03:24:24 PM 27.2697 -81.6303 334° Northwest 271 312 28,000  Level Miami Center
Thu 03:25:24 PM 27.3417 -81.6658 336° Northwest 277 319 28,000  Level Miami Center
Thu 03:26:24 PM 27.4031 -81.7011 333° Northwest 272 313 28,000  Level Miami Center
Thu 03:27:24 PM 27.4831 -81.7444 334° Northwest 272 313 28,000  Level Miami Center
Thu 03:28:24 PM 27.5528 -81.7800 336° Northwest 272 313 28,000  Level Miami Center
Thu 03:29:24 PM 27.6244 -81.8183 335° Northwest 277 319 28,000  Level Miami Center
Thu 03:30:24 PM 27.6881 -81.8517 335° Northwest 277 319 28,000  Level Miami Center
Thu 03:32:43 PM 27.8606 -81.9442 335° Northwest 281 323 28,000  Level Jacksonville Center
Thu 03:33:43 PM 27.9319 -81.9836 334° Northwest 281 323 28,000  Level Jacksonville Center
Thu 03:34:43 PM 28.0008 -82.0253 332° Northwest 281 323 28,000  Level Jacksonville Center
Thu 03:35:43 PM 28.0597 -82.0789 321° Northwest 281 323 28,000  Level Jacksonville Center
Thu 03:36:43 PM 28.1206 -82.1347 321° Northwest 281 323 28,000  Level Jacksonville Center
Thu 03:37:43 PM 28.1814 -82.1886 322° Northwest 281 323 28,000  Level Jacksonville Center
Thu 03:38:43 PM 28.2422 -82.2447 321° Northwest 281 323 28,000  Level Jacksonville Center
Thu 03:39:43 PM 28.3050 -82.2961 324° Northwest 281 323 28,000  Level Jacksonville Center
Thu 03:40:43 PM 28.3844 -82.3192 346° North 286 329 28,000  Level Jacksonville Center
Thu 03:41:43 PM 28.4639 -82.3422 346° North 291 335 28,000  Level Jacksonville Center
Thu 03:42:43 PM 28.5433 -82.3633 347° North 291 335 28,000  Level Jacksonville Center
Thu 03:43:43 PM 28.6228 -82.3864 346° North 291 335 28,000  Level Jacksonville Center
Thu 03:44:43 PM 28.7000 -82.4050 348° North 291 335 28,000  Level Jacksonville Center
Thu 03:45:43 PM 28.7794 -82.4236 348° North 286 329 28,000  Level Jacksonville Center
Thu 03:46:43 PM 28.8567 -82.4469 345° North 286 329 28,000  Level Jacksonville Center
Thu 03:47:43 PM 28.9339 -82.4703 345° North 286 329 28,000  Level Jacksonville Center
Thu 03:48:43 PM 29.0133 -82.4914 347° North 281 323 28,000  Level Jacksonville Center
Thu 03:49:43 PM 29.0928 -82.5147 346° North 281 323 28,000  Level Jacksonville Center
Thu 03:50:43 PM 29.1700 -82.5358 347° North 281 323 28,000  Level Jacksonville Center
Thu 03:51:43 PM 29.2472 -82.5569 347° North 281 323 28,000  Level Jacksonville Center
Thu 03:52:43 PM 29.3267 -82.5781 347° North 281 323 28,000  Level Jacksonville Center
Thu 03:53:43 PM 29.4061 -82.6017 345° North 281 323 28,000  Level Jacksonville Center
Thu 03:54:43 PM 29.4894 -82.6039 359° North 281 323 28,000 50 Level Jacksonville Center
Thu 03:55:43 PM 29.5731 -82.5989 North 291 335 28,100 300 Climbing Jacksonville Center
Thu 03:56:43 PM 29.6525 -82.5961 North 291 335 28,600 450 Climbing Jacksonville Center
Thu 03:57:43 PM 29.7317 -82.5889 North 286 329 29,000 200 Climbing Jacksonville Center
Thu 03:58:43 PM 29.8111 -82.5861 North 286 329 29,000  Level Jacksonville Center
Thu 03:59:43 PM 29.8944 -82.5811 North 286 329 29,000  Level Jacksonville Center
Thu 04:00:43 PM 29.9758 -82.5783 North 291 335 29,000  Level Jacksonville Center
Thu 04:01:43 PM 30.0572 -82.5781 360° North 291 335 29,000  Level Jacksonville Center
Thu 04:02:43 PM 30.1389 -82.5731 North 291 335 29,000  Level Jacksonville Center
Thu 04:03:43 PM 30.2222 -82.5706 North 291 335 29,000  Level Jacksonville Center
Thu 04:04:43 PM 30.3017 -82.5631 North 291 335 29,000  Level Jacksonville Center
Thu 04:05:43 PM 30.3872 -82.5603 North 291 335 29,000  Level Jacksonville Center
Thu 04:06:43 PM 30.4686 -82.5575 North 291 335 29,000  Level Jacksonville Center
Thu 04:07:43 PM 30.5522 -82.5525 North 291 335 29,000  Level Jacksonville Center
Thu 04:08:43 PM 30.6336 -82.5472 North 291 335 29,000  Level Jacksonville Center
Thu 04:09:43 PM 30.7150 -82.5447 North 291 335 29,000  Level Jacksonville Center
Thu 04:10:43 PM 30.8006 -82.5394 North 291 335 29,000  Level Jacksonville Center
Thu 04:11:43 PM 30.8819 -82.5367 North 291 335 29,000  Level Jacksonville Center
Thu 04:12:43 PM 30.9656 -82.5317 North 291 335 29,000  Level Jacksonville Center
Thu 04:13:43 PM 31.0489 -82.5289 North 291 335 29,000  Level Jacksonville Center
Thu 04:14:43 PM 31.1303 -82.5236 North 291 335 29,000  Level Jacksonville Center
Thu 04:15:43 PM 31.2119 -82.5208 North 291 335 29,000  Level Jacksonville Center
Thu 04:16:43 PM 31.2911 -82.5158 North 291 335 29,000  Level Jacksonville Center
Thu 04:17:43 PM 31.3747 -82.5106 North 291 335 29,000  Level Jacksonville Center
Thu 04:18:43 PM 31.4581 -82.5028 North 291 335 29,000  Level Jacksonville Center
Thu 04:19:43 PM 31.5394 -82.5000 North 291 335 29,000  Level Jacksonville Center
Thu 04:20:43 PM 31.6231 -82.4950 North 291 335 29,000  Level Jacksonville Center
Thu 04:22:41 PM 31.7850 -82.4900 North 308 354 29,000  Level Atlanta Center
Thu 04:24:41 PM 31.9497 -82.4797 North 298 343 29,000  Level Atlanta Center
Thu 04:25:41 PM 32.0331 -82.4758 North 292 336 29,000  Level Atlanta Center
Thu 04:26:41 PM 32.1144 -82.4719 North 287 330 29,000  Level Atlanta Center
Thu 04:27:41 PM 32.1958 -82.4681 North 287 330 29,000  Level Atlanta Center
Thu 04:28:41 PM 32.2686 -82.4617 North 287 330 29,000  Level Atlanta Center
Thu 04:29:41 PM 32.3583 -82.4603 North 287 330 29,000  Level Atlanta Center
Thu 04:30:41 PM 32.4397 -82.4539 North 287 330 29,000  Level Atlanta Center
Thu 04:31:41 PM 32.5253 -82.4497 North 287 330 29,000  Level Atlanta Center
Thu 04:32:41 PM 32.6089 -82.4458 North 287 330 29,000  Level Atlanta Center
Thu 04:33:41 PM 32.6900 -82.4419 North 287 330 29,000  Level Atlanta Center
Thu 04:34:41 PM 32.7714 -82.4381 North 293 337 29,000  Level Atlanta Center
Thu 04:35:41 PM 32.8550 -82.4317 North 293 337 29,000  Level Atlanta Center
Thu 04:36:41 PM 32.9383 -82.4300 North 288 331 29,000  Level Atlanta Center
Thu 04:37:41 PM 33.0197 -82.4236 North 288 331 29,000  Level Atlanta Center
Thu 04:38:41 PM 33.1031 -82.4194 North 293 337 29,000  Level Atlanta Center
Thu 04:39:41 PM 33.1844 -82.4156 North 293 337 29,000  Level Atlanta Center
Thu 04:40:41 PM 33.2678 -82.4114 North 288 331 29,000  Level Atlanta Center
Thu 04:41:41 PM 33.3492 -82.4100 North 288 331 29,000  Level Atlanta Center
Thu 04:42:41 PM 33.4286 -82.4058 North 288 331 29,000  Level Atlanta Center
Thu 04:43:41 PM 33.5119 -82.4019 North 288 331 29,000  Level Atlanta Center
Thu 04:44:41 PM 33.5953 -82.3953 North 289 333 29,000  Level Atlanta Center
Thu 04:45:41 PM 33.6831 -82.3911 North 296 341 29,000  Level Atlanta Center
Thu 04:46:41 PM 33.7600 -82.3847 North 307 353 29,000  Level Atlanta Center
Thu 04:47:41 PM 33.8436 -82.3806 North 307 353 29,000  Level Atlanta Center
Thu 04:48:41 PM 33.9292 -82.3739 North 305 351 29,000  Level Atlanta Center
Thu 04:49:41 PM 34.0167 -82.3697 North 317 365 29,000  Level Atlanta Center
Thu 04:50:41 PM 34.1000 -82.3656 North 300 345 29,000  Level Atlanta Center
Thu 04:51:41 PM 34.2003 -82.3611 North 312 359 29,000  Level Atlanta Center
Thu 04:52:41 PM 34.2858 -82.3569 North 312 359 29,000  Level Atlanta Center
Thu 04:53:41 PM 34.3692 -82.3525 North 307 353 29,000  Level Atlanta Center
Thu 04:54:41 PM 34.4567 -82.3483 North 307 353 29,000  Level Atlanta Center
Thu 04:55:41 PM 34.5422 -82.3417 North 307 353 29,000  Level Atlanta Center
Thu 04:56:41 PM 34.6297 -82.3397 North 307 353 29,000  Level Atlanta Center
Thu 04:57:41 PM 34.7131 -82.3306 North 307 353 29,000  Level Atlanta Center
Thu 04:58:41 PM 34.7986 -82.3264 North 307 353 29,000  Level Atlanta Center
Thu 04:59:41 PM 34.8842 -82.3244 North 307 353 29,000  Level Atlanta Center
Thu 05:00:41 PM 34.9717 -82.3203 North 307 353 29,000  Level Atlanta Center
Thu 05:01:41 PM 35.0572 -82.3158 North 307 353 29,000  Level Atlanta Center
Thu 05:02:41 PM 35.1447 -82.3089 North 307 353 29,000  Level Atlanta Center
Thu 05:03:41 PM 35.2283 -82.3072 North 307 353 29,000  Level Atlanta Center
Thu 05:04:41 PM 35.3158 -82.3028 North 307 353 29,000  Level Atlanta Center
Thu 05:05:41 PM 35.3992 -82.2986 North 307 353 29,000  Level Atlanta Center
Thu 05:06:41 PM 35.4847 -82.2942 North 307 353 29,000  Level Atlanta Center
Thu 05:07:41 PM 35.5703 -82.2897 North 307 353 29,000  Level Atlanta Center
Thu 05:08:41 PM 35.6556 -82.2856 North 307 353 29,000  Level Atlanta Center
Thu 05:09:41 PM 35.7389 -82.2758 North 307 353 29,000  Level Atlanta Center
Thu 05:10:41 PM 35.8139 -82.2719 North 301 346 29,000  Level Atlanta Center
Thu 05:11:41 PM 35.8994 -82.2675 North 301 346 29,000  Level Atlanta Center
Thu 05:12:41 PM 35.9850 -82.2631 North 306 352 29,000  Level Atlanta Center
Thu 05:13:41 PM 36.0683 -82.2558 North 305 351 29,000  Level Atlanta Center
Thu 05:14:41 PM 36.1536 -82.2517 North 305 351 29,000  Level Atlanta Center
Thu 05:15:41 PM 36.2369 -82.2472 North 305 351 29,000  Level Atlanta Center
Thu 05:16:41 PM 36.3203 -82.2400 North 305 351 29,000  Level Atlanta Center
Thu 05:17:41 PM 36.4036 -82.2356 North 300 345 29,000  Level Atlanta Center
Thu 05:18:41 PM 36.4872 -82.2311 North 300 345 29,000  Level Atlanta Center
Thu 05:19:41 PM 36.5706 -82.2267 North 300 345 29,000  Level Atlanta Center
Thu 05:20:51 PM 36.6658 -82.2219 North 302 348 29,000  Level Indianapolis Center
Thu 05:21:53 PM 36.7622 -82.2161 North 298 343 29,000  Level Indianapolis Center
Thu 05:22:55 PM 36.8472 -82.2114 North 303 349 29,000  Level Indianapolis Center
Thu 05:23:57 PM 36.9303 -82.2067 North 299 344 29,000  Level Indianapolis Center
Thu 05:25:00 PM 37.0139 -82.2025 North 300 345 29,000  Level Indianapolis Center
Thu 05:26:02 PM 37.0978 -82.1972 North 300 345 29,000  Level Indianapolis Center
Thu 05:27:04 PM 37.1964 -82.1919 North 303 349 29,000  Level Indianapolis Center
Thu 05:28:06 PM 37.2797 -82.1867 North 301 346 29,000  Level Indianapolis Center
Thu 05:29:08 PM 37.3644 -82.1819 North 303 349 29,000  Level Indianapolis Center
Thu 05:30:10 PM 37.4478 -82.1778 North 300 345 29,000 -48 Level Indianapolis Center
Thu 05:31:12 PM 37.5331 -82.1722 North 305 351 28,900 -339 Descending Indianapolis Center
Thu 05:32:14 PM 37.6347 -82.1667 North 312 359 28,300 -435 Descending Indianapolis Center
Thu 05:33:16 PM 37.7239 -82.1606 North 318 366 28,000 -145 Descending Indianapolis Center
Thu 05:34:18 PM 37.8119 -82.1553 North 316 364 28,000  Level Indianapolis Center
Thu 05:35:20 PM 37.8942 -82.1508 North 313 360 28,000  Level Indianapolis Center
Thu 05:36:23 PM 37.9797 -82.1453 North 309 356 28,000  Level Indianapolis Center
Thu 05:37:25 PM 38.0839 -82.1389 North 310 357 28,000 -48 Level Indianapolis Center
Thu 05:38:27 PM 38.1675 -82.1344 North 303 349 27,900 -484 Descending Indianapolis Center
Thu 05:39:29 PM 38.2531 -82.1286 North 305 351 27,000 -823 Descending Indianapolis Center
Thu 05:40:31 PM 38.3411 -82.1239 North 315 362 26,200 -774 Descending Indianapolis Center
Thu 05:41:33 PM 38.4306 -82.1178 North 319 367 25,400 -774 Descending Indianapolis Center
Thu 05:42:35 PM 38.5211 -82.1122 North 322 371 24,600 -677 Descending Indianapolis Center
Thu 05:43:37 PM 38.6114 -82.1069 North 323 372 24,000 -871 Descending Indianapolis Center
Thu 05:44:39 PM 38.7200 -82.1003 North 323 372 22,800 -1,161 Descending Indianapolis Center
Thu 05:45:41 PM 38.8122 -82.0947 North 329 379 21,600 -1,161 Descending Indianapolis Center
Thu 05:46:43 PM 38.9033 -82.0900 North 325 374 20,400 -1,161 Descending Indianapolis Center
Thu 05:47:45 PM 38.9864 -82.1181 345° North 308 354 19,200 -720 Descending Indianapolis Center
Thu 05:48:48 PM 39.0675 -82.1464 345° North 301 346 18,900 -672 Descending Indianapolis Center
Thu 05:49:50 PM 39.1556 -82.1575 354° North 315 362 17,800 -1,355 Descending Indianapolis Center
Thu 05:50:52 PM 39.2475 -82.1694 354° North 328 377 16,100 -1,839 Descending Indianapolis Center
Thu 05:51:54 PM 39.3539 -82.1814 355° North 318 366 14,000 -2,286 Descending Indianapolis Center
Thu 05:52:37 PM 39.4150 -82.1917 353° North 303 349 12,100 -2,806 Descending Indianapolis Center
Thu 05:52:56 PM 39.4364 -82.1928 358° North 297 342 11,100 -3,750 Descending Indianapolis Center
Thu 05:53:01 PM 39.4442 -82.1958 343° North 290 334 10,600 -2,419 Descending Indianapolis Center
Thu 05:53:58 PM 39.5044 -82.2050 353° North 288 331 8,600 -2,361 Descending Indianapolis Center
Thu 05:54:02 PM 39.5225 -82.2103 347° North 282 325 8,200 -581 Descending Indianapolis Center
Thu 05:55:00 PM 39.5925 -82.2264 350° North 271 312 8,000 -197 Descending Indianapolis Center
Thu 05:55:03 PM 39.5944 -82.2292 312° West 262 302 8,000  Level Indianapolis Center
Thu 05:56:02 PM 39.6669 -82.2400 353° North 270 311 8,000  Level Indianapolis Center
Thu 05:56:04 PM 39.6708 -82.2431 329° Northwest 272 313 8,000  Level Indianapolis Center
Thu 05:57:04 PM 39.7422 -82.2561 352° North 275 316 8,000  Level Indianapolis Center
Thu 05:57:05 PM 39.7486 -82.2631 320° Northwest 270 311 8,000  Level Indianapolis Center
Thu 05:58:06 PM 39.8119 -82.3078 332° Northwest 260 299 8,000  Level Indianapolis Center
Thu 05:59:07 PM 39.8678 -82.3625 323° Northwest 252 290 8,000  Level Indianapolis Center
Thu 05:59:08 PM 39.8650 -82.3511 108° East 257 296 8,000 -1,400 Level Indianapolis Center
Thu 06:00:07 PM 39.9008 -82.4383 298° West 243 280 6,600 -1,452 Descending Indianapolis Center
Thu 06:00:10 PM 39.9036 -82.4428 309° West 242 278 6,500 -1,475 Descending Indianapolis Center
Thu 06:01:08 PM 39.9275 -82.5133 294° West 229 264 5,100 -1,355 Descending Indianapolis Center
Thu 06:01:12 PM 39.9314 -82.5181 317° Northwest 236 272 5,100 -269 Level Indianapolis Center
Thu 06:02:15 PM 39.9558 -82.5869 295° West 217 250 4,800 -915 Descending Indianapolis Center
Thu 06:03:10 PM 39.9778 -82.6547 293° West 202 232 3,300 -1,452 Descending Indianapolis Center
Thu 06:03:17 PM 39.9789 -82.6533 44° Northeast 208 239 3,300 -295 Level Indianapolis Center
Thu 06:04:11 PM 39.9825 -82.7156 274° West 149 171 3,000 -290 Descending Indianapolis Center
Thu 06:04:19 PM 39.9836 -82.7128 62° Northeast 180 207 3,000 -393 Level Indianapolis Center
Thu 06:05:12 PM 39.9847 -82.7597 272° West 118 136 2,600 -387 Descending Indianapolis Center
Thu 06:05:21 PM 39.9847 -82.7600 270° West 148 170 2,600 -590 Level Indianapolis Center
Thu 06:06:13 PM 39.9869 -82.8036 274° West 119 137 2,000 -677 Descending Indianapolis Center
Thu 06:06:23 PM 39.9883 -82.8117 283° West 130 150 1,900 -700 Descending Indianapolis Center
Thu 06:07:13 PM 39.9908 -82.8508 275° West 119 137 1,300 -581 Descending Indianapolis Center
Thu 06:07:25 PM 39.9914 -82.8586 275° West 124 143 1,300  Level Indianapolis Center
Thu 06:09:00 PM 39.9833 -82.8833 270° West  Level FlightAware Approximate
Thu 06:16:00 PM 39.9969 -82.8922 270° West  Level Estimated

Login

Don't have an account? Register now (free) for customized features, flight alerts, and more!